createdAt,value
2018-05-02T00:00:38.355Z,94756
2018-05-02T00:03:09.133Z,94750
2018-05-02T00:05:39.850Z,94745
2018-05-02T00:08:10.554Z,94747
2018-05-02T00:10:40.587Z,94745
2018-05-02T00:13:10.531Z,94742
2018-05-02T00:15:41.247Z,94735
2018-05-02T00:18:11.927Z,94743
2018-05-02T00:20:42.559Z,94740
2018-05-02T00:23:12.455Z,94741
2018-05-02T00:25:43.120Z,94742
2018-05-02T00:28:13.023Z,94746
2018-05-02T00:30:43.680Z,94751
2018-05-02T00:33:13.557Z,94745
2018-05-02T00:35:44.324Z,94747
2018-05-02T00:38:14.186Z,94753
2018-05-02T00:40:44.849Z,94752
2018-05-02T00:43:14.792Z,94749
2018-05-02T00:45:44.674Z,94745
2018-05-02T00:48:14.546Z,94741
2018-05-02T00:50:45.203Z,94737
2018-05-02T00:53:15.877Z,94730
2018-05-02T00:55:45.757Z,94732
2018-05-02T00:58:16.462Z,94728
2018-05-02T01:00:47.495Z,94730
2018-05-02T01:03:17.382Z,94731
2018-05-02T01:05:47.264Z,94729
2018-05-02T01:08:17.906Z,94729
2018-05-02T01:10:47.774Z,94735
2018-05-02T01:13:18.438Z,94742
2018-05-02T01:15:48.391Z,94747
2018-05-02T01:18:19.136Z,94744
2018-05-02T01:20:49.072Z,94739
2018-05-02T01:23:19.745Z,94744
2018-05-02T01:25:50.568Z,94747
2018-05-02T01:28:21.946Z,94741
2018-05-02T01:30:51.803Z,94743
2018-05-02T01:33:21.636Z,94743
2018-05-02T01:35:52.595Z,94740
2018-05-02T01:38:22.555Z,94751
2018-05-02T01:40:52.491Z,94743
2018-05-02T01:43:23.240Z,94737
2018-05-02T01:45:53.192Z,94737
2018-05-02T01:48:23.223Z,94739
2018-05-02T01:50:53.960Z,94735
2018-05-02T01:53:23.944Z,94739
2018-05-02T01:55:54.834Z,94740
2018-05-02T01:58:25.556Z,94744
2018-05-02T02:00:56.340Z,94750
2018-05-02T02:03:26.295Z,94741
2018-05-02T02:05:56.235Z,94739
2018-05-02T02:08:26.195Z,94735
2018-05-02T02:10:56.120Z,94743
2018-05-02T02:13:26.048Z,94743
2018-05-02T02:15:55.987Z,94736
2018-05-02T02:18:25.940Z,94740
2018-05-02T02:20:55.893Z,94739
2018-05-02T02:23:25.850Z,94734
2018-05-02T02:25:56.563Z,94728
2018-05-02T02:28:27.346Z,94737
2018-05-02T02:30:57.332Z,94734
2018-05-02T02:33:28.060Z,94733
2018-05-02T02:35:58.778Z,94728
2018-05-02T02:38:29.516Z,94723
2018-05-02T02:41:00.286Z,94731
2018-05-02T02:43:30.245Z,94733
2018-05-02T02:46:01.350Z,94734
2018-05-02T02:48:31.322Z,94734
2018-05-02T02:51:02.103Z,94736
2018-05-02T02:53:32.063Z,94730
2018-05-02T02:56:02.840Z,94730
2018-05-02T02:58:33.557Z,94735
2018-05-02T03:01:04.275Z,94733
2018-05-02T03:03:35.011Z,94731
2018-05-02T03:06:05.781Z,94730
2018-05-02T03:08:35.767Z,94734
2018-05-02T03:11:06.480Z,94730
2018-05-02T03:13:37.259Z,94736
2018-05-02T03:16:07.223Z,94738
2018-05-02T03:18:37.163Z,94732
2018-05-02T03:21:07.924Z,94734
2018-05-02T03:23:37.883Z,94733
2018-05-02T03:26:07.863Z,94733
2018-05-02T03:28:38.639Z,94741
2018-05-02T03:31:09.399Z,94737
2018-05-02T03:33:40.162Z,94739
2018-05-02T03:36:10.876Z,94739
2018-05-02T03:38:41.583Z,94734
2018-05-02T03:41:12.521Z,94734
2018-05-02T03:43:43.256Z,94728
2018-05-02T03:46:14.015Z,94723
2018-05-02T03:48:44.731Z,94719
2018-05-02T03:51:14.695Z,94710
2018-05-02T03:53:44.630Z,94703
2018-05-02T03:56:15.365Z,94703
2018-05-02T03:58:45.282Z,94705
2018-05-02T04:01:33.075Z,94694
2018-05-02T04:04:21.475Z,94694
2018-05-02T04:07:15.835Z,94695
2018-05-02T04:09:45.794Z,94701
2018-05-02T04:12:18.097Z,94704
2018-05-02T04:14:48.044Z,94709
2018-05-02T04:17:17.992Z,94709
2018-05-02T04:19:47.928Z,94696
2018-05-02T04:22:18.640Z,94700
2018-05-02T04:24:49.375Z,94700
2018-05-02T04:27:20.091Z,94696
2018-05-02T04:29:50.823Z,94702
2018-05-02T04:32:21.568Z,94703
2018-05-02T04:34:51.570Z,94692
2018-05-02T04:37:22.347Z,94698
2018-05-02T04:39:53.100Z,94702
2018-05-02T04:42:23.137Z,94697
2018-05-02T04:44:53.938Z,94700
2018-05-02T04:47:24.718Z,94704
2018-05-02T04:49:54.704Z,94701
2018-05-02T04:52:24.688Z,94710
2018-05-02T04:54:55.391Z,94705
2018-05-02T04:57:25.368Z,94695
2018-05-02T04:59:56.269Z,94696
2018-05-02T05:02:27.004Z,94695
2018-05-02T05:04:57.714Z,94701
2018-05-02T05:07:28.496Z,94703
2018-05-02T05:09:59.649Z,94704
2018-05-02T05:12:29.650Z,94702
2018-05-02T05:14:59.640Z,94707
2018-05-02T05:17:30.442Z,94721
2018-05-02T05:20:01.212Z,94721
2018-05-02T05:22:31.989Z,94715
2018-05-02T05:25:01.985Z,94719
2018-05-02T05:27:31.974Z,94719
2018-05-02T05:30:02.751Z,94718
2018-05-02T05:32:32.739Z,94712
2018-05-02T05:35:03.472Z,94717
2018-05-02T05:37:34.228Z,94720
2018-05-02T05:40:04.271Z,94707
2018-05-02T05:42:34.268Z,94700
2018-05-02T05:45:05.169Z,94700
2018-05-02T05:47:35.176Z,94697
2018-05-02T05:50:05.935Z,94691
2018-05-02T05:52:36.707Z,94689
2018-05-02T05:55:06.709Z,94689
2018-05-02T05:57:36.743Z,94689
2018-05-02T06:00:07.697Z,94689
2018-05-02T06:02:39.053Z,94690
2018-05-02T06:05:09.915Z,94688
2018-05-02T06:07:39.852Z,94692
2018-05-02T06:10:10.861Z,94696
2018-05-02T06:12:41.634Z,94696
2018-05-02T06:15:11.673Z,94691
2018-05-02T06:17:41.697Z,94696
2018-05-02T06:20:12.616Z,94694
2018-05-02T06:22:43.534Z,94685
2018-05-02T06:25:15.571Z,94693
2018-05-02T06:27:45.620Z,94700
2018-05-02T06:30:15.576Z,94697
2018-05-02T06:32:46.300Z,94694
2018-05-02T06:35:18.674Z,94692
2018-05-02T06:37:49.192Z,94694
2018-05-02T06:40:19.125Z,94690
2018-05-02T06:42:49.108Z,94689
2018-05-02T06:45:19.033Z,94694
2018-05-02T06:47:49.256Z,94693
2018-05-02T06:50:20.266Z,94691
2018-05-02T06:52:54.888Z,94690
2018-05-02T06:55:27.774Z,94685
2018-05-02T06:58:00.370Z,94682
2018-05-02T07:00:33.168Z,94680
2018-05-02T07:03:06.183Z,94671
2018-05-02T07:05:39.470Z,94669
2018-05-02T07:08:10.710Z,94674
2018-05-02T07:10:42.002Z,94665
2018-05-02T07:13:13.417Z,94658
2018-05-02T07:15:45.150Z,94665
2018-05-02T07:18:16.195Z,94669
2018-05-02T07:20:47.079Z,94668
2018-05-02T07:23:17.100Z,94667
2018-05-02T07:25:47.901Z,94671
2018-05-02T07:28:18.659Z,94666
2018-05-02T07:30:49.436Z,94664
2018-05-02T07:33:20.247Z,94666
2018-05-02T07:35:51.008Z,94668
2018-05-02T07:38:21.004Z,94658
2018-05-02T07:40:50.976Z,94664
2018-05-02T07:43:21.738Z,94665
2018-05-02T07:45:51.721Z,94665
2018-05-02T07:48:22.492Z,94659
2018-05-02T07:50:53.310Z,94655
2018-05-02T07:53:24.091Z,94648
2018-05-02T07:55:54.013Z,94646
2018-05-02T07:58:23.972Z,94651
2018-05-02T08:00:58.060Z,94649
2018-05-02T08:03:32.860Z,94648
2018-05-02T08:06:07.199Z,94648
2018-05-02T08:08:41.224Z,94645
2018-05-02T08:11:13.732Z,94648
2018-05-02T08:13:44.632Z,94649
2018-05-02T08:16:14.615Z,94642
2018-05-02T08:18:45.479Z,94646
2018-05-02T08:21:16.380Z,94649
2018-05-02T08:23:47.236Z,94650
2018-05-02T08:26:18.032Z,94642
2018-05-02T08:28:48.054Z,94646
2018-05-02T08:31:18.123Z,94644
2018-05-02T08:33:48.068Z,94644
2018-05-02T08:36:18.891Z,94632
2018-05-02T08:38:48.879Z,94637
2018-05-02T08:41:19.632Z,94635
2018-05-02T08:43:49.651Z,94632
2018-05-02T08:46:21.055Z,94635
2018-05-02T08:48:51.890Z,94628
2018-05-02T08:51:21.934Z,94630
2018-05-02T08:53:51.935Z,94629
2018-05-02T08:56:22.717Z,94624
2018-05-02T08:58:52.877Z,94627
2018-05-02T09:01:23.722Z,94625
2018-05-02T09:03:54.487Z,94619
2018-05-02T09:06:24.507Z,94615
2018-05-02T09:08:54.679Z,94622
2018-05-02T09:11:24.632Z,94616
2018-05-02T09:13:54.673Z,94618
2018-05-02T09:16:24.672Z,94616
2018-05-02T09:18:55.473Z,94614
2018-05-02T09:21:26.247Z,94603
2018-05-02T09:23:57.238Z,94605
2018-05-02T09:26:27.198Z,94605
2018-05-02T09:28:57.187Z,94603
2018-05-02T09:31:27.944Z,94605
2018-05-02T09:33:58.739Z,94594
2018-05-02T09:36:29.491Z,94603
2018-05-02T09:39:00.177Z,94592
2018-05-02T09:41:30.174Z,94588
2018-05-02T09:44:00.246Z,94589
2018-05-02T09:46:30.218Z,94592
2018-05-02T09:49:01.322Z,94587
2018-05-02T09:51:32.049Z,94594
2018-05-02T09:54:02.829Z,94588
2018-05-02T09:56:32.814Z,94593
2018-05-02T09:59:02.776Z,94588
2018-05-02T10:01:33.530Z,94584
2018-05-02T10:04:04.328Z,94585
2018-05-02T10:06:35.171Z,94588
2018-05-02T10:09:05.243Z,94587
2018-05-02T10:11:35.315Z,94586
2018-05-02T10:14:05.308Z,94589
2018-05-02T10:16:35.302Z,94596
2018-05-02T10:19:06.155Z,94592
2018-05-02T10:21:36.151Z,94598
2018-05-02T10:24:06.134Z,94592
2018-05-02T10:26:36.989Z,94582
2018-05-02T10:29:06.982Z,94586
2018-05-02T10:31:37.766Z,94580
2018-05-02T10:34:07.751Z,94571
2018-05-02T10:36:38.567Z,94566
2018-05-02T10:39:09.389Z,94570
2018-05-02T10:41:40.224Z,94567
2018-05-02T10:44:10.229Z,94573
2018-05-02T10:46:40.237Z,94568
2018-05-02T10:49:10.239Z,94570
2018-05-02T10:51:40.307Z,94565
2018-05-02T10:54:10.300Z,94574
2018-05-02T10:56:41.911Z,94577
2018-05-02T10:59:11.907Z,94566
2018-05-02T11:01:41.968Z,94554
2018-05-02T11:04:11.963Z,94559
2018-05-02T11:06:42.688Z,94557
2018-05-02T11:09:13.677Z,94552
2018-05-02T11:11:44.517Z,94540
2018-05-02T11:14:15.312Z,94530
2018-05-02T11:16:45.378Z,94514
2018-05-02T11:19:16.183Z,94510
2018-05-02T11:21:47.034Z,94501
2018-05-02T11:24:17.056Z,94493
2018-05-02T11:26:47.069Z,94479
2018-05-02T11:29:17.052Z,94483
2018-05-02T11:31:48.103Z,94479
2018-05-02T11:34:19.039Z,94485
2018-05-02T11:36:49.055Z,94483
2018-05-02T11:39:19.038Z,94484
2018-05-02T11:41:49.863Z,94468
2018-05-02T11:44:20.642Z,94466
2018-05-02T11:46:50.612Z,94468
2018-05-02T11:49:21.392Z,94466
2018-05-02T11:51:51.431Z,94458
2018-05-02T11:54:21.389Z,94449
2018-05-02T11:56:52.159Z,94445
2018-05-02T11:59:22.143Z,94449
2018-05-02T12:01:52.936Z,94443
2018-05-02T12:04:22.928Z,94443
2018-05-02T12:06:52.941Z,94437
2018-05-02T12:09:22.959Z,94441
2018-05-02T12:11:53.047Z,94442
2018-05-02T12:14:23.811Z,94441
2018-05-02T12:16:53.836Z,94436
2018-05-02T12:19:23.816Z,94437
2018-05-02T12:21:54.730Z,94429
2018-05-02T12:24:25.587Z,94431
2018-05-02T12:26:56.400Z,94421
2018-05-02T12:29:27.712Z,94412
2018-05-02T12:31:57.689Z,94403
2018-05-02T12:34:28.459Z,94394
2018-05-02T12:36:58.407Z,94395
2018-05-02T12:39:28.423Z,94398
2018-05-02T12:41:59.320Z,94391
2018-05-02T12:44:29.329Z,94384
2018-05-02T12:46:59.331Z,94381
2018-05-02T12:49:29.357Z,94376
2018-05-02T12:51:59.371Z,94373
2018-05-02T12:54:29.407Z,94361
2018-05-02T12:57:00.284Z,94363
2018-05-02T12:59:30.249Z,94368
2018-05-02T13:02:00.279Z,94358
2018-05-02T13:04:30.287Z,94355
2018-05-02T13:07:00.323Z,94355
2018-05-02T13:09:30.342Z,94349
2018-05-02T13:12:00.389Z,94343
2018-05-02T13:14:31.196Z,94347
2018-05-02T13:17:01.201Z,94340
2018-05-02T13:19:32.095Z,94340
2018-05-02T13:22:02.887Z,94329
2018-05-02T13:24:33.695Z,94323
2018-05-02T13:27:03.721Z,94326
2018-05-02T13:29:33.723Z,94325
2018-05-02T13:32:03.748Z,94319
2018-05-02T13:34:33.759Z,94319
2018-05-02T13:37:04.524Z,94311
2018-05-02T13:39:34.536Z,94316
2018-05-02T13:42:04.579Z,94312
2018-05-02T13:44:34.631Z,94316
2018-05-02T13:47:05.600Z,94311
2018-05-02T13:49:35.591Z,94310
2018-05-02T13:52:06.368Z,94307
2018-05-02T13:54:37.165Z,94312
2018-05-02T13:57:07.920Z,94309
2018-05-02T13:59:37.859Z,94303
2018-05-02T14:02:08.660Z,94304
2018-05-02T14:04:38.690Z,94296
2018-05-02T14:07:08.725Z,94291
2018-05-02T14:09:38.695Z,94294
2018-05-02T14:12:08.699Z,94299
2018-05-02T14:14:39.468Z,94291
2018-05-02T14:17:09.410Z,94292
2018-05-02T14:19:39.375Z,94294
2018-05-02T14:22:09.376Z,94289
2018-05-02T14:24:40.252Z,94286
2018-05-02T14:27:10.930Z,94282
2018-05-02T14:29:42.148Z,94274
2018-05-02T14:32:12.109Z,94269
2018-05-02T14:34:42.111Z,94273
2018-05-02T14:37:12.916Z,94270
2018-05-02T14:39:43.727Z,94263
2018-05-02T14:42:14.554Z,94262
2018-05-02T14:44:44.538Z,94264
2018-05-02T14:47:15.347Z,94257
2018-05-02T14:49:45.340Z,94255
2018-05-02T14:52:15.390Z,94253
2018-05-02T14:54:46.202Z,94254
2018-05-02T14:57:16.219Z,94253
2018-05-02T14:59:47.040Z,94259
2018-05-02T15:02:17.065Z,94257
2018-05-02T15:04:47.930Z,94259
2018-05-02T15:07:18.747Z,94257
2018-05-02T15:09:49.581Z,94258
2018-05-02T15:12:19.613Z,94259
2018-05-02T15:14:49.664Z,94257
2018-05-02T15:17:20.432Z,94258
2018-05-02T15:19:50.487Z,94258
2018-05-02T15:22:21.304Z,94259
2018-05-02T15:24:51.291Z,94258
2018-05-02T15:27:21.359Z,94263
2018-05-02T15:29:52.419Z,94260
2018-05-02T15:32:23.427Z,94255
2018-05-02T15:34:53.403Z,94258
2018-05-02T15:37:23.389Z,94256
2018-05-02T15:39:53.431Z,94258
2018-05-02T15:42:23.468Z,94237
2018-05-02T15:44:53.463Z,94255
2018-05-02T15:47:24.467Z,94258
2018-05-02T15:49:55.273Z,94257
2018-05-02T15:52:25.288Z,94261
2018-05-02T15:54:55.307Z,94265
2018-05-02T15:57:25.316Z,94267
2018-05-02T15:59:55.305Z,94279
2018-05-02T16:02:25.315Z,94279
2018-05-02T16:04:55.343Z,94282
2018-05-02T16:07:25.377Z,94283
2018-05-02T16:09:55.491Z,94289
2018-05-02T16:12:25.482Z,94290
2018-05-02T16:14:56.287Z,94290
2018-05-02T16:17:27.123Z,94293
2018-05-02T16:19:58.020Z,94294
2018-05-02T16:22:27.987Z,94294
2018-05-02T16:24:59.111Z,94288
2018-05-02T16:27:29.940Z,94289
2018-05-02T16:30:00.801Z,94284
2018-05-02T16:32:31.657Z,94279
2018-05-02T16:35:02.669Z,94276
2018-05-02T16:37:33.463Z,94279
2018-05-02T16:40:03.530Z,94278
2018-05-02T16:42:34.300Z,94277
2018-05-02T16:45:04.480Z,94282
2018-05-02T16:47:35.388Z,94289
2018-05-02T16:50:05.452Z,94286
2018-05-02T16:52:35.409Z,94283
2018-05-02T16:55:05.488Z,94281
2018-05-02T16:57:35.483Z,94280
2018-05-02T17:00:06.355Z,94276
2018-05-02T17:02:36.427Z,94272
2018-05-02T17:05:07.330Z,94278
2018-05-02T17:07:38.088Z,94285
2018-05-02T17:10:09.067Z,94290
2018-05-02T17:12:39.072Z,94279
2018-05-02T17:15:09.890Z,94293
2018-05-02T17:17:40.027Z,94298
2018-05-02T17:20:10.828Z,94300
2018-05-02T17:22:40.921Z,94303
2018-05-02T17:25:12.372Z,94311
2018-05-02T17:27:42.347Z,94306
2018-05-02T17:30:12.437Z,94311
2018-05-02T17:32:43.237Z,94308
2018-05-02T17:35:13.201Z,94313
2018-05-02T17:37:43.208Z,94306
2018-05-02T17:40:14.789Z,94311
2018-05-02T17:42:44.714Z,94313
2018-05-02T17:45:15.467Z,94311
2018-05-02T17:47:45.588Z,94311
2018-05-02T17:50:16.567Z,94314
2018-05-02T17:52:47.403Z,94311
2018-05-02T17:55:17.417Z,94310
2018-05-02T17:57:52.880Z,94314
2018-05-02T18:00:24.375Z,94317
2018-05-02T18:02:54.412Z,94326
2018-05-02T18:05:24.458Z,94323
2018-05-02T18:07:55.365Z,94334
2018-05-02T18:10:25.536Z,94342
2018-05-02T18:12:55.643Z,94347
2018-05-02T18:15:25.618Z,94347
2018-05-02T18:17:55.748Z,94353
2018-05-02T18:20:25.801Z,94367
2018-05-02T18:22:56.606Z,94369
2018-05-02T18:25:26.668Z,94382
2018-05-02T18:27:56.708Z,94383
2018-05-02T18:30:26.752Z,94385
2018-05-02T18:32:57.620Z,94388
2018-05-02T18:35:28.509Z,94394
2018-05-02T18:37:59.392Z,94402
2018-05-02T18:40:30.261Z,94396
2018-05-02T18:43:01.025Z,94396
2018-05-02T18:45:31.958Z,94398
2018-05-02T18:48:02.946Z,94403
2018-05-02T18:50:33.828Z,94396
2018-05-02T18:53:03.851Z,94400
2018-05-02T18:55:33.867Z,94398
2018-05-02T18:58:03.989Z,94399
2018-05-02T19:00:35.139Z,94397
2018-05-02T19:03:05.448Z,94399
2018-05-02T19:05:35.494Z,94412
2018-05-02T19:08:06.404Z,94421
2018-05-02T19:10:36.461Z,94421
2018-05-02T19:13:07.611Z,94418
2018-05-02T19:15:38.617Z,94425
2018-05-02T19:18:15.167Z,94429
2018-05-02T19:20:46.172Z,94430
2018-05-02T19:23:17.030Z,94439
2018-05-02T19:25:53.378Z,94456
2018-05-02T19:28:24.253Z,94465
2018-05-02T19:30:59.819Z,94471
2018-05-02T19:33:36.208Z,94481
2018-05-02T19:36:07.001Z,94489
2018-05-02T19:38:37.122Z,94489
2018-05-02T19:41:14.511Z,94494
2018-05-02T19:43:50.005Z,94493
2018-05-02T19:46:20.898Z,94498
2018-05-02T19:48:50.913Z,94499
2018-05-02T19:51:27.868Z,94500
2018-05-02T19:53:58.945Z,94500
2018-05-02T19:56:30.025Z,94504
2018-05-02T19:59:00.204Z,94503
2018-05-02T20:01:36.516Z,94502
2018-05-02T20:04:06.593Z,94492
2018-05-02T20:06:37.616Z,94493
2018-05-02T20:09:14.311Z,94488
2018-05-02T20:11:50.868Z,94479
2018-05-02T20:14:20.902Z,94481
2018-05-02T20:16:52.240Z,94471
2018-05-02T20:19:23.051Z,94471
2018-05-02T20:21:53.097Z,94471
2018-05-02T20:24:24.315Z,94462
2018-05-02T20:26:55.149Z,94470
2018-05-02T20:29:26.058Z,94461
2018-05-02T20:31:57.230Z,94460
2018-05-02T20:34:28.233Z,94468
2018-05-02T20:36:59.414Z,94466
2018-05-02T20:39:29.511Z,94473
2018-05-02T20:41:59.989Z,94475
2018-05-02T20:44:30.819Z,94478
2018-05-02T20:47:01.687Z,94480
2018-05-02T20:49:32.476Z,94486
2018-05-02T20:52:03.340Z,94484
2018-05-02T20:54:33.339Z,94479
2018-05-02T20:57:04.177Z,94475
2018-05-02T20:59:34.187Z,94469
2018-05-02T21:02:04.223Z,94463
2018-05-02T21:04:35.080Z,94464
2018-05-02T21:07:05.938Z,94467
2018-05-02T21:09:35.968Z,94465
2018-05-02T21:12:06.054Z,94461
2018-05-02T21:14:36.767Z,94456
2018-05-02T21:17:07.571Z,94465
2018-05-02T21:19:38.501Z,94462
2018-05-02T21:22:09.472Z,94464
2018-05-02T21:24:40.206Z,94463
2018-05-02T21:27:10.278Z,94461
2018-05-02T21:29:40.288Z,94460
2018-05-02T21:32:11.007Z,94462
2018-05-02T21:34:41.733Z,94456
2018-05-02T21:37:12.536Z,94462
2018-05-02T21:39:42.581Z,94452
2018-05-02T21:42:13.386Z,94462
2018-05-02T21:44:43.439Z,94475
2018-05-02T21:47:13.447Z,94474
2018-05-02T21:49:44.601Z,94490
2018-05-02T21:52:15.363Z,94495
2018-05-02T21:54:46.101Z,94502
2018-05-02T21:57:16.414Z,94513
2018-05-02T21:59:48.285Z,94511
2018-05-02T22:02:18.287Z,94526
2018-05-02T22:04:48.339Z,94519
2018-05-02T22:07:19.047Z,94526
2018-05-02T22:09:49.749Z,94533
2018-05-02T22:12:19.627Z,94541
2018-05-02T22:14:50.271Z,94548
2018-05-02T22:17:21.103Z,94554
2018-05-02T22:19:50.986Z,94552
2018-05-02T22:22:21.691Z,94552
2018-05-02T22:24:51.582Z,94550
2018-05-02T22:27:21.469Z,94550
2018-05-02T22:29:51.433Z,94552
2018-05-02T22:32:21.332Z,94544
2018-05-02T22:34:51.223Z,94544
2018-05-02T22:37:21.826Z,94554
2018-05-02T22:39:51.743Z,94560
2018-05-02T22:42:22.388Z,94566
2018-05-02T22:44:53.145Z,94568
2018-05-02T22:47:23.071Z,94561
2018-05-02T22:49:52.970Z,94553
2018-05-02T22:52:22.847Z,94563
2018-05-02T22:54:52.736Z,94560
2018-05-02T22:57:22.630Z,94565
2018-05-02T22:59:52.544Z,94561
2018-05-02T23:02:22.448Z,94566
2018-05-02T23:04:52.596Z,94555
2018-05-02T23:07:23.319Z,94558
2018-05-02T23:09:53.225Z,94558
2018-05-02T23:12:23.946Z,94558
2018-05-02T23:14:53.819Z,94555
2018-05-02T23:17:23.699Z,94542
2018-05-02T23:19:53.575Z,94549
2018-05-02T23:22:23.449Z,94555
2018-05-02T23:24:53.356Z,94560
2018-05-02T23:27:23.218Z,94561
2018-05-02T23:29:53.129Z,94559
2018-05-02T23:32:22.963Z,94550
2018-05-02T23:34:52.880Z,94550
2018-05-02T23:37:22.802Z,94552
2018-05-02T23:39:52.710Z,94556
2018-05-02T23:42:23.425Z,94567
2018-05-02T23:44:53.302Z,94570
2018-05-02T23:47:23.971Z,94573
2018-05-02T23:49:53.926Z,94570
2018-05-02T23:52:24.625Z,94570
2018-05-02T23:54:54.486Z,94569
2018-05-02T23:57:25.110Z,94567
2018-05-02T23:59:55.006Z,94569
